sensor_id;sensor_type;location;lat;lon;timestamp;pressure;altitude;pressure_sealevel;temperature;humidity
18850;BME280;4989;48.772;9.154;2023-12-29T00:01:00;98067.53;;;10.34;100.00
18850;BME280;4989;48.772;9.154;2023-12-29T00:06:04;98061.22;;;10.40;100.00
18850;BME280;4989;48.772;9.154;2023-12-29T00:11:07;98055.22;;;10.69;100.00
18850;BME280;4989;48.772;9.154;2023-12-29T00:16:09;98059.09;;;11.04;100.00
18850;BME280;4989;48.772;9.154;2023-12-29T00:21:12;98053.22;;;10.89;100.00
18850;BME280;4989;48.772;9.154;2023-12-29T00:26:17;98053.63;;;11.40;100.00
18850;BME280;4989;48.772;9.154;2023-12-29T00:31:27;98050.84;;;10.91;99.43
18850;BME280;4989;48.772;9.154;2023-12-29T00:36:32;98052.91;;;11.04;100.00
18850;BME280;4989;48.772;9.154;2023-12-29T00:41:34;98045.91;;;10.86;98.87
18850;BME280;4989;48.772;9.154;2023-12-29T00:46:37;98044.78;;;10.47;100.00
18850;BME280;4989;48.772;9.154;2023-12-29T00:51:40;98053.13;;;10.57;100.00
18850;BME280;4989;48.772;9.154;2023-12-29T00:56:50;98042.09;;;10.64;100.00
18850;BME280;4989;48.772;9.154;2023-12-29T01:01:53;98057.19;;;11.37;94.35
18850;BME280;4989;48.772;9.154;2023-12-29T01:06:56;98061.41;;;11.06;97.77
18850;BME280;4989;48.772;9.154;2023-12-29T01:11:58;98065.19;;;11.77;97.71
18850;BME280;4989;48.772;9.154;2023-12-29T01:17:01;98059.41;;;11.75;92.88
18850;BME280;4989;48.772;9.154;2023-12-29T01:22:04;98061.78;;;11.24;92.24
18850;BME280;4989;48.772;9.154;2023-12-29T01:27:07;98052.84;;;11.40;89.89
18850;BME280;4989;48.772;9.154;2023-12-29T01:32:10;98055.97;;;10.89;91.86
18850;BME280;4989;48.772;9.154;2023-12-29T01:37:13;98060.41;;;10.80;93.98
18850;BME280;4989;48.772;9.154;2023-12-29T01:42:16;98060.94;;;10.54;100.00
18850;BME280;4989;48.772;9.154;2023-12-29T01:47:18;98065.94;;;10.76;95.47
18850;BME280;4989;48.772;9.154;2023-12-29T01:52:21;98057.81;;;10.56;95.13
18850;BME280;4989;48.772;9.154;2023-12-29T01:57:24;98049.88;;;11.02;100.00
18850;BME280;4989;48.772;9.154;2023-12-29T02:02:27;98041.66;;;10.85;92.42
18850;BME280;4989;48.772;9.154;2023-12-29T02:07:30;98032.34;;;10.46;97.09
18850;BME280;4989;48.772;9.154;2023-12-29T02:12:35;98029.34;;;10.61;98.90
18850;BME280;4989;48.772;9.154;2023-12-29T02:17:47;98031.97;;;10.84;93.58
18850;BME280;4989;48.772;9.154;2023-12-29T02:22:51;98032.34;;;10.46;97.12
18850;BME280;4989;48.772;9.154;2023-12-29T02:28:27;98016.03;;;11.19;95.08
18850;BME280;4989;48.772;9.154;2023-12-29T02:33:35;98023.91;;;10.81;95.49
18850;BME280;4989;48.772;9.154;2023-12-29T02:38:40;98022.44;;;10.76;93.55
18850;BME280;4989;48.772;9.154;2023-12-29T02:43:44;98015.84;;;10.93;91.59
18850;BME280;4989;48.772;9.154;2023-12-29T02:48:46;98004.72;;;10.68;94.22
18850;BME280;4989;48.772;9.154;2023-12-29T02:53:49;98017.66;;;10.80;98.68
18850;BME280;4989;48.772;9.154;2023-12-29T02:58:53;97997.59;;;10.38;100.00
18850;BME280;4989;48.772;9.154;2023-12-29T03:03:55;98002.47;;;10.46;100.00
18850;BME280;4989;48.772;9.154;2023-12-29T03:08:59;98005.53;;;10.08;100.00
18850;BME280;4989;48.772;9.154;2023-12-29T03:14:01;97991.56;;;10.30;100.00
18850;BME280;4989;48.772;9.154;2023-12-29T03:19:04;97984.69;;;10.62;100.00
18850;BME280;4989;48.772;9.154;2023-12-29T03:24:08;97990.66;;;10.37;100.00
18850;BME280;4989;48.772;9.154;2023-12-29T03:29:11;97976.53;;;10.62;100.00
18850;BME280;4989;48.772;9.154;2023-12-29T03:34:14;97978.78;;;10.07;100.00
18850;BME280;4989;48.772;9.154;2023-12-29T03:39:17;97962.13;;;10.25;100.00
18850;BME280;4989;48.772;9.154;2023-12-29T03:44:20;97957.13;;;10.43;100.00
18850;BME280;4989;48.772;9.154;2023-12-29T03:49:23;97978.09;;;10.03;100.00
18850;BME280;4989;48.772;9.154;2023-12-29T03:54:26;97974.19;;;10.04;100.00
18850;BME280;4989;48.772;9.154;2023-12-29T03:59:29;97967.38;;;9.96;100.00
18850;BME280;4989;48.772;9.154;2023-12-29T04:04:32;97962.38;;;10.14;100.00
18850;BME280;4989;48.772;9.154;2023-12-29T04:09:35;97972.59;;;10.06;100.00
18850;BME280;4989;48.772;9.154;2023-12-29T04:14:38;97969.88;;;9.86;100.00
18850;BME280;4989;48.772;9.154;2023-12-29T04:19:41;97962.84;;;10.09;100.00
18850;BME280;4989;48.772;9.154;2023-12-29T04:24:44;97975.50;;;10.16;100.00
18850;BME280;4989;48.772;9.154;2023-12-29T04:29:46;97970.06;;;9.76;100.00
18850;BME280;4989;48.772;9.154;2023-12-29T04:34:49;97965.06;;;9.94;100.00
18850;BME280;4989;48.772;9.154;2023-12-29T04:39:52;97957.94;;;9.60;100.00
18850;BME280;4989;48.772;9.154;2023-12-29T04:44:55;97964.34;;;9.50;100.00
18850;BME280;4989;48.772;9.154;2023-12-29T04:49:58;97969.75;;;9.50;100.00
18850;BME280;4989;48.772;9.154;2023-12-29T04:55:01;97980.56;;;9.54;100.00
18850;BME280;4989;48.772;9.154;2023-12-29T05:00:04;97984.72;;;9.58;100.00
18850;BME280;4989;48.772;9.154;2023-12-29T05:05:07;97984.50;;;9.49;100.00
18850;BME280;4989;48.772;9.154;2023-12-29T05:10:10;97986.16;;;9.43;100.00
18850;BME280;4989;48.772;9.154;2023-12-29T05:15:12;97987.88;;;9.77;100.00
18850;BME280;4989;48.772;9.154;2023-12-29T05:20:15;97987.47;;;9.78;100.00
18850;BME280;4989;48.772;9.154;2023-12-29T05:25:18;97982.59;;;9.70;100.00
18850;BME280;4989;48.772;9.154;2023-12-29T05:30:20;97978.59;;;10.18;100.00
18850;BME280;4989;48.772;9.154;2023-12-29T05:35:23;97975.56;;;9.72;100.00
18850;BME280;4989;48.772;9.154;2023-12-29T05:40:26;97975.50;;;9.76;100.00
18850;BME280;4989;48.772;9.154;2023-12-29T05:45:28;97979.06;;;9.49;100.00
18850;BME280;4989;48.772;9.154;2023-12-29T05:50:31;97987.56;;;9.51;100.00
18850;BME280;4989;48.772;9.154;2023-12-29T05:55:33;97980.72;;;9.43;100.00
18850;BME280;4989;48.772;9.154;2023-12-29T06:00:39;97987.47;;;9.35;100.00
18850;BME280;4989;48.772;9.154;2023-12-29T06:05:42;97993.22;;;9.37;100.00
18850;BME280;4989;48.772;9.154;2023-12-29T06:10:48;97982.13;;;9.51;100.00
18850;BME280;4989;48.772;9.154;2023-12-29T06:15:51;97990.41;;;9.44;100.00
18850;BME280;4989;48.772;9.154;2023-12-29T06:20:53;97998.53;;;9.44;100.00
18850;BME280;4989;48.772;9.154;2023-12-29T06:25:56;97987.81;;;9.37;100.00
18850;BME280;4989;48.772;9.154;2023-12-29T06:30:59;97980.94;;;9.29;100.00
18850;BME280;4989;48.772;9.154;2023-12-29T06:36:02;97987.94;;;9.30;100.00
18850;BME280;4989;48.772;9.154;2023-12-29T06:41:05;97984.25;;;9.40;100.00
18850;BME280;4989;48.772;9.154;2023-12-29T06:46:08;97966.09;;;9.37;100.00
18850;BME280;4989;48.772;9.154;2023-12-29T06:51:16;97966.22;;;9.53;100.00
18850;BME280;4989;48.772;9.154;2023-12-29T06:56:20;97968.94;;;9.53;100.00
18850;BME280;4989;48.772;9.154;2023-12-29T07:01:23;97978.06;;;9.83;100.00
18850;BME280;4989;48.772;9.154;2023-12-29T07:06:26;97976.00;;;9.91;100.00
18850;BME280;4989;48.772;9.154;2023-12-29T07:11:29;97981.50;;;9.87;100.00
18850;BME280;4989;48.772;9.154;2023-12-29T07:16:31;97988.50;;;9.64;100.00
18850;BME280;4989;48.772;9.154;2023-12-29T07:21:34;97974.38;;;9.53;100.00
18850;BME280;4989;48.772;9.154;2023-12-29T07:26:37;97961.25;;;9.48;100.00
18850;BME280;4989;48.772;9.154;2023-12-29T07:31:40;97962.94;;;9.42;100.00
18850;BME280;4989;48.772;9.154;2023-12-29T07:36:43;97968.81;;;9.37;100.00
18850;BME280;4989;48.772;9.154;2023-12-29T07:41:46;97956.66;;;9.45;100.00
18850;BME280;4989;48.772;9.154;2023-12-29T07:46:50;97948.91;;;9.47;100.00
18850;BME280;4989;48.772;9.154;2023-12-29T07:51:53;97960.31;;;9.58;100.00
18850;BME280;4989;48.772;9.154;2023-12-29T07:56:56;97963.50;;;9.53;100.00
18850;BME280;4989;48.772;9.154;2023-12-29T08:01:58;97979.66;;;9.60;100.00
18850;BME280;4989;48.772;9.154;2023-12-29T08:07:01;97972.69;;;9.59;100.00
18850;BME280;4989;48.772;9.154;2023-12-29T08:12:04;97974.91;;;9.64;100.00
18850;BME280;4989;48.772;9.154;2023-12-29T08:17:07;97980.25;;;9.72;100.00
18850;BME280;4989;48.772;9.154;2023-12-29T08:22:10;97978.25;;;9.96;100.00
18850;BME280;4989;48.772;9.154;2023-12-29T08:27:14;97986.53;;;10.08;100.00
18850;BME280;4989;48.772;9.154;2023-12-29T08:32:16;97992.88;;;10.02;100.00
18850;BME280;4989;48.772;9.154;2023-12-29T08:37:19;97982.25;;;10.07;100.00
18850;BME280;4989;48.772;9.154;2023-12-29T08:42:23;97996.34;;;10.02;100.00
18850;BME280;4989;48.772;9.154;2023-12-29T08:47:25;97987.22;;;10.13;100.00
18850;BME280;4989;48.772;9.154;2023-12-29T08:52:28;97985.38;;;10.29;100.00
18850;BME280;4989;48.772;9.154;2023-12-29T08:57:32;97978.84;;;10.43;100.00
18850;BME280;4989;48.772;9.154;2023-12-29T09:02:34;97991.47;;;10.34;100.00
18850;BME280;4989;48.772;9.154;2023-12-29T09:07:37;97981.09;;;10.48;100.00
18850;BME280;4989;48.772;9.154;2023-12-29T09:12:40;97988.50;;;10.28;100.00
18850;BME280;4989;48.772;9.154;2023-12-29T09:17:43;97985.84;;;10.44;100.00
18850;BME280;4989;48.772;9.154;2023-12-29T09:22:46;97990.03;;;10.29;100.00
18850;BME280;4989;48.772;9.154;2023-12-29T09:27:49;97998.88;;;10.53;100.00
18850;BME280;4989;48.772;9.154;2023-12-29T09:32:55;97999.16;;;10.75;100.00
18850;BME280;4989;48.772;9.154;2023-12-29T09:37:58;98004.72;;;10.68;100.00
18850;BME280;4989;48.772;9.154;2023-12-29T09:43:03;98003.28;;;11.32;100.00
18850;BME280;4989;48.772;9.154;2023-12-29T09:48:08;98009.56;;;10.96;100.00
18850;BME280;4989;48.772;9.154;2023-12-29T09:53:15;98015.94;;;10.90;100.00
18850;BME280;4989;48.772;9.154;2023-12-29T09:58:21;98016.16;;;10.79;100.00
18850;BME280;4989;48.772;9.154;2023-12-29T10:03:25;98012.13;;;11.20;100.00
18850;BME280;4989;48.772;9.154;2023-12-29T10:08:28;98007.69;;;11.10;100.00
18850;BME280;4989;48.772;9.154;2023-12-29T10:13:32;98014.41;;;11.05;100.00
18850;BME280;4989;48.772;9.154;2023-12-29T10:24:20;97999.22;;;11.08;100.00
18850;BME280;4989;48.772;9.154;2023-12-29T10:29:24;97988.38;;;11.04;100.00
18850;BME280;4989;48.772;9.154;2023-12-29T10:34:29;97974.38;;;11.06;100.00
18850;BME280;4989;48.772;9.154;2023-12-29T10:39:32;97977.72;;;11.59;100.00
18850;BME280;4989;48.772;9.154;2023-12-29T10:44:36;97976.38;;;11.67;100.00
18850;BME280;4989;48.772;9.154;2023-12-29T10:49:40;97976.97;;;12.04;100.00
18850;BME280;4989;48.772;9.154;2023-12-29T10:54:44;97957.63;;;11.85;100.00
18850;BME280;4989;48.772;9.154;2023-12-29T10:59:55;97952.31;;;11.65;100.00
18850;BME280;4989;48.772;9.154;2023-12-29T11:05:07;97954.88;;;12.02;100.00
18850;BME280;4989;48.772;9.154;2023-12-29T11:10:11;97938.78;;;12.20;100.00
18850;BME280;4989;48.772;9.154;2023-12-29T11:15:15;97938.50;;;12.44;100.00
18850;BME280;4989;48.772;9.154;2023-12-29T11:20:18;97935.28;;;13.35;100.00
18850;BME280;4989;48.772;9.154;2023-12-29T11:25:22;97939.50;;;15.17;100.00
18850;BME280;4989;48.772;9.154;2023-12-29T11:30:25;97931.59;;;15.10;100.00
18850;BME280;4989;48.772;9.154;2023-12-29T11:36:32;97925.47;;;14.25;100.00
18850;BME280;4989;48.772;9.154;2023-12-29T11:46:56;97926.28;;;16.26;100.00
18850;BME280;4989;48.772;9.154;2023-12-29T11:52:05;97933.22;;;17.60;97.17
18850;BME280;4989;48.772;9.154;2023-12-29T11:57:08;97910.75;;;15.31;94.85
18850;BME280;4989;48.772;9.154;2023-12-29T12:02:27;97909.09;;;15.33;94.03
18850;BME280;4989;48.772;9.154;2023-12-29T12:12:41;97898.03;;;13.41;100.00
18850;BME280;4989;48.772;9.154;2023-12-29T12:17:45;97890.41;;;12.63;100.00
18850;BME280;4989;48.772;9.154;2023-12-29T12:22:56;97882.09;;;13.83;100.00
18850;BME280;4989;48.772;9.154;2023-12-29T12:28:01;97869.47;;;14.39;97.99
18850;BME280;4989;48.772;9.154;2023-12-29T12:33:05;97873.22;;;14.63;98.42
18850;BME280;4989;48.772;9.154;2023-12-29T12:38:16;97867.28;;;13.71;100.00
18850;BME280;4989;48.772;9.154;2023-12-29T12:43:27;97866.44;;;14.06;100.00
18850;BME280;4989;48.772;9.154;2023-12-29T12:48:43;97856.09;;;14.32;100.00
18850;BME280;4989;48.772;9.154;2023-12-29T12:53:47;97859.53;;;13.70;100.00
18850;BME280;4989;48.772;9.154;2023-12-29T12:58:51;97863.78;;;13.14;100.00
18850;BME280;4989;48.772;9.154;2023-12-29T13:03:54;97874.63;;;13.40;100.00
18850;BME280;4989;48.772;9.154;2023-12-29T13:09:00;97871.59;;;13.82;100.00
18850;BME280;4989;48.772;9.154;2023-12-29T13:14:05;97873.78;;;13.65;100.00
18850;BME280;4989;48.772;9.154;2023-12-29T13:19:36;97871.31;;;14.42;100.00
18850;BME280;4989;48.772;9.154;2023-12-29T13:24:46;97883.22;;;13.51;100.00
18850;BME280;4989;48.772;9.154;2023-12-29T13:29:49;97894.16;;;13.03;100.00
18850;BME280;4989;48.772;9.154;2023-12-29T13:35:01;97889.50;;;13.39;99.15
18850;BME280;4989;48.772;9.154;2023-12-29T13:45:16;97885.75;;;12.98;100.00
18850;BME280;4989;48.772;9.154;2023-12-29T13:50:20;97896.19;;;13.12;98.66
18850;BME280;4989;48.772;9.154;2023-12-29T13:55:25;97885.00;;;13.45;100.00
18850;BME280;4989;48.772;9.154;2023-12-29T14:00:28;97891.22;;;12.98;100.00
18850;BME280;4989;48.772;9.154;2023-12-29T14:05:56;97890.72;;;12.77;99.63
18850;BME280;4989;48.772;9.154;2023-12-29T14:11:07;97890.94;;;12.45;100.00
18850;BME280;4989;48.772;9.154;2023-12-29T14:16:12;97892.88;;;12.31;100.00
18850;BME280;4989;48.772;9.154;2023-12-29T14:21:28;97885.38;;;12.61;100.00
18850;BME280;4989;48.772;9.154;2023-12-29T14:26:31;97889.97;;;12.38;100.00
18850;BME280;4989;48.772;9.154;2023-12-29T14:31:36;97891.38;;;12.43;100.00
18850;BME280;4989;48.772;9.154;2023-12-29T14:36:42;97900.75;;;12.29;100.00
18850;BME280;4989;48.772;9.154;2023-12-29T14:41:45;97895.97;;;12.59;100.00
18850;BME280;4989;48.772;9.154;2023-12-29T14:46:48;97909.16;;;12.48;98.23
18850;BME280;4989;48.772;9.154;2023-12-29T14:51:51;97911.44;;;12.36;99.20
18850;BME280;4989;48.772;9.154;2023-12-29T14:56:55;97902.38;;;12.40;100.00
18850;BME280;4989;48.772;9.154;2023-12-29T15:02:09;97910.56;;;12.40;100.00
18850;BME280;4989;48.772;9.154;2023-12-29T15:07:12;97920.59;;;12.43;100.00
18850;BME280;4989;48.772;9.154;2023-12-29T15:12:15;97908.47;;;12.31;100.00
18850;BME280;4989;48.772;9.154;2023-12-29T15:17:17;97919.94;;;12.26;100.00
18850;BME280;4989;48.772;9.154;2023-12-29T15:22:20;97914.88;;;12.11;99.89
18850;BME280;4989;48.772;9.154;2023-12-29T15:27:28;97916.56;;;12.34;100.00
18850;BME280;4989;48.772;9.154;2023-12-29T15:32:32;97911.91;;;11.93;100.00
18850;BME280;4989;48.772;9.154;2023-12-29T15:37:35;97910.25;;;12.37;98.34
18850;BME280;4989;48.772;9.154;2023-12-29T15:42:38;97908.28;;;12.51;100.00
18850;BME280;4989;48.772;9.154;2023-12-29T15:47:40;97916.38;;;12.00;100.00
18850;BME280;4989;48.772;9.154;2023-12-29T15:52:43;97906.69;;;11.99;99.86
18850;BME280;4989;48.772;9.154;2023-12-29T15:57:46;97902.88;;;11.96;100.00
18850;BME280;4989;48.772;9.154;2023-12-29T16:02:49;97905.22;;;12.23;95.72
18850;BME280;4989;48.772;9.154;2023-12-29T16:07:52;97903.50;;;11.87;98.07
18850;BME280;4989;48.772;9.154;2023-12-29T16:12:56;97903.06;;;11.60;96.99
18850;BME280;4989;48.772;9.154;2023-12-29T16:17:58;97904.09;;;11.50;96.88
18850;BME280;4989;48.772;9.154;2023-12-29T16:23:04;97894.75;;;11.51;95.60
18850;BME280;4989;48.772;9.154;2023-12-29T16:28:07;97909.41;;;11.69;94.69
18850;BME280;4989;48.772;9.154;2023-12-29T16:33:10;97902.38;;;11.56;92.81
18850;BME280;4989;48.772;9.154;2023-12-29T16:38:12;97894.41;;;11.49;92.81
18850;BME280;4989;48.772;9.154;2023-12-29T16:43:15;97894.00;;;10.88;97.15
18850;BME280;4989;48.772;9.154;2023-12-29T16:48:18;97899.75;;;10.74;98.36
18850;BME280;4989;48.772;9.154;2023-12-29T16:53:21;97895.69;;;10.82;98.21
18850;BME280;4989;48.772;9.154;2023-12-29T16:58:25;97889.06;;;10.67;98.78
18850;BME280;4989;48.772;9.154;2023-12-29T17:03:28;97882.66;;;10.41;100.00
18850;BME280;4989;48.772;9.154;2023-12-29T17:08:32;97872.88;;;10.27;100.00
18850;BME280;4989;48.772;9.154;2023-12-29T17:13:36;97874.00;;;10.09;100.00
18850;BME280;4989;48.772;9.154;2023-12-29T17:18:39;97868.88;;;9.95;100.00
18850;BME280;4989;48.772;9.154;2023-12-29T17:23:42;97879.19;;;9.84;100.00
18850;BME280;4989;48.772;9.154;2023-12-29T17:28:46;97877.03;;;9.75;100.00
18850;BME280;4989;48.772;9.154;2023-12-29T17:33:49;97886.56;;;9.63;100.00
18850;BME280;4989;48.772;9.154;2023-12-29T17:38:52;97878.78;;;9.66;100.00
18850;BME280;4989;48.772;9.154;2023-12-29T17:43:55;97882.81;;;9.57;100.00
18850;BME280;4989;48.772;9.154;2023-12-29T17:48:58;97890.50;;;9.59;100.00
18850;BME280;4989;48.772;9.154;2023-12-29T17:54:01;97895.41;;;9.68;100.00
18850;BME280;4989;48.772;9.154;2023-12-29T17:59:03;97895.91;;;9.62;100.00
18850;BME280;4989;48.772;9.154;2023-12-29T18:04:06;97895.53;;;9.60;100.00
18850;BME280;4989;48.772;9.154;2023-12-29T18:09:09;97893.00;;;9.50;100.00
18850;BME280;4989;48.772;9.154;2023-12-29T18:14:15;97889.06;;;9.54;100.00
18850;BME280;4989;48.772;9.154;2023-12-29T18:19:18;97889.22;;;9.47;100.00
18850;BME280;4989;48.772;9.154;2023-12-29T18:24:25;97889.00;;;9.58;100.00
18850;BME280;4989;48.772;9.154;2023-12-29T18:29:28;97898.81;;;9.72;100.00
18850;BME280;4989;48.772;9.154;2023-12-29T18:34:31;97895.94;;;9.39;100.00
18850;BME280;4989;48.772;9.154;2023-12-29T18:39:33;97891.81;;;9.31;100.00
18850;BME280;4989;48.772;9.154;2023-12-29T18:44:37;97888.28;;;9.34;100.00
18850;BME280;4989;48.772;9.154;2023-12-29T18:49:40;97888.38;;;9.50;100.00
18850;BME280;4989;48.772;9.154;2023-12-29T18:54:43;97888.41;;;9.47;100.00
18850;BME280;4989;48.772;9.154;2023-12-29T18:59:47;97888.16;;;9.41;100.00
18850;BME280;4989;48.772;9.154;2023-12-29T19:04:50;97901.84;;;9.34;100.00
18850;BME280;4989;48.772;9.154;2023-12-29T19:09:53;97903.81;;;9.53;100.00
18850;BME280;4989;48.772;9.154;2023-12-29T19:14:56;97900.41;;;9.26;100.00
18850;BME280;4989;48.772;9.154;2023-12-29T19:19:59;97896.78;;;9.12;100.00
18850;BME280;4989;48.772;9.154;2023-12-29T19:25:05;97885.31;;;9.05;100.00
18850;BME280;4989;48.772;9.154;2023-12-29T19:30:08;97882.19;;;9.06;100.00
18850;BME280;4989;48.772;9.154;2023-12-29T19:35:13;97871.91;;;9.17;100.00
18850;BME280;4989;48.772;9.154;2023-12-29T19:40:15;97879.31;;;9.37;100.00
18850;BME280;4989;48.772;9.154;2023-12-29T19:45:19;97877.53;;;9.50;100.00
18850;BME280;4989;48.772;9.154;2023-12-29T19:50:22;97891.84;;;9.71;100.00
18850;BME280;4989;48.772;9.154;2023-12-29T19:55:25;97902.84;;;10.03;100.00
18850;BME280;4989;48.772;9.154;2023-12-29T20:00:28;97885.50;;;10.17;100.00
18850;BME280;4989;48.772;9.154;2023-12-29T20:05:31;97892.53;;;10.15;100.00
18850;BME280;4989;48.772;9.154;2023-12-29T20:10:35;97895.81;;;10.06;100.00
18850;BME280;4989;48.772;9.154;2023-12-29T20:15:38;97892.97;;;10.66;100.00
18850;BME280;4989;48.772;9.154;2023-12-29T20:20:41;97902.19;;;10.16;100.00
18850;BME280;4989;48.772;9.154;2023-12-29T20:25:43;97890.06;;;9.84;100.00
18850;BME280;4989;48.772;9.154;2023-12-29T20:30:47;97898.00;;;9.75;100.00
18850;BME280;4989;48.772;9.154;2023-12-29T20:35:50;97890.06;;;9.84;100.00
18850;BME280;4989;48.772;9.154;2023-12-29T20:40:52;97893.72;;;9.94;100.00
18850;BME280;4989;48.772;9.154;2023-12-29T20:45:55;97898.59;;;10.02;100.00
18850;BME280;4989;48.772;9.154;2023-12-29T20:50:58;97886.78;;;10.65;100.00
18850;BME280;4989;48.772;9.154;2023-12-29T20:56:11;97903.88;;;10.29;100.00
18850;BME280;4989;48.772;9.154;2023-12-29T21:01:14;97901.75;;;9.81;100.00
18850;BME280;4989;48.772;9.154;2023-12-29T21:06:17;97898.59;;;9.82;100.00
18850;BME280;4989;48.772;9.154;2023-12-29T21:11:23;97898.53;;;9.86;100.00
18850;BME280;4989;48.772;9.154;2023-12-29T21:16:26;97904.28;;;9.68;100.00
18850;BME280;4989;48.772;9.154;2023-12-29T21:21:35;97899.69;;;9.45;100.00
18850;BME280;4989;48.772;9.154;2023-12-29T21:26:38;97905.13;;;9.45;100.00
18850;BME280;4989;48.772;9.154;2023-12-29T21:31:43;97906.22;;;9.28;100.00
18850;BME280;4989;48.772;9.154;2023-12-29T21:36:46;97907.47;;;9.23;100.00
18850;BME280;4989;48.772;9.154;2023-12-29T21:41:49;97908.38;;;9.13;100.00
18850;BME280;4989;48.772;9.154;2023-12-29T21:46:56;97905.38;;;9.07;100.00
18850;BME280;4989;48.772;9.154;2023-12-29T21:51:59;97911.75;;;8.97;100.00
18850;BME280;4989;48.772;9.154;2023-12-29T21:57:04;97909.06;;;8.97;100.00
18850;BME280;4989;48.772;9.154;2023-12-29T22:02:10;97908.94;;;8.81;100.00
18850;BME280;4989;48.772;9.154;2023-12-29T22:07:14;97909.09;;;8.70;100.00
18850;BME280;4989;48.772;9.154;2023-12-29T22:12:17;97902.28;;;8.58;100.00
18850;BME280;4989;48.772;9.154;2023-12-29T22:17:19;97912.06;;;8.52;100.00
18850;BME280;4989;48.772;9.154;2023-12-29T22:22:22;97900.03;;;8.53;100.00
18850;BME280;4989;48.772;9.154;2023-12-29T22:27:25;97891.00;;;8.63;100.00
18850;BME280;4989;48.772;9.154;2023-12-29T22:32:28;97896.53;;;8.80;100.00
18850;BME280;4989;48.772;9.154;2023-12-29T22:37:31;97896.47;;;8.83;100.00
18850;BME280;4989;48.772;9.154;2023-12-29T22:42:33;97887.25;;;8.81;100.00
18850;BME280;4989;48.772;9.154;2023-12-29T22:47:37;97887.22;;;9.04;100.00
18850;BME280;4989;48.772;9.154;2023-12-29T22:52:41;97894.22;;;9.05;100.00
18850;BME280;4989;48.772;9.154;2023-12-29T22:57:44;97899.19;;;9.07;100.00
18850;BME280;4989;48.772;9.154;2023-12-29T23:02:47;97884.28;;;9.18;100.00
18850;BME280;4989;48.772;9.154;2023-12-29T23:07:50;97889.72;;;9.18;100.00
18850;BME280;4989;48.772;9.154;2023-12-29T23:12:56;97876.94;;;9.39;100.00
18850;BME280;4989;48.772;9.154;2023-12-29T23:17:59;97887.59;;;9.30;100.00
18850;BME280;4989;48.772;9.154;2023-12-29T23:23:02;97876.81;;;9.46;100.00
18850;BME280;4989;48.772;9.154;2023-12-29T23:28:06;97874.78;;;9.30;100.00
18850;BME280;4989;48.772;9.154;2023-12-29T23:33:09;97875.53;;;9.31;100.00
18850;BME280;4989;48.772;9.154;2023-12-29T23:38:11;97883.28;;;9.52;100.00
18850;BME280;4989;48.772;9.154;2023-12-29T23:43:17;97885.66;;;9.50;100.00
18850;BME280;4989;48.772;9.154;2023-12-29T23:48:23;97898.94;;;9.64;100.00
18850;BME280;4989;48.772;9.154;2023-12-29T23:53:25;97896.59;;;9.67;100.00
18850;BME280;4989;48.772;9.154;2023-12-29T23:58:28;97897.00;;;9.85;100.00
